Duluth, Kansas
Current Conditions -  °F | °C
As of 3:52 PM on Friday 24 Oct 2014 (Local Time) from KMHK Reporting Station
Clear Clear  
Wind Chill: 79°   Ceiling: Unl
Heat Index: 81°   Visibility: 10mi
Dew Point: 63°   Wind: 13mph
Humidity: 58%   Direction: 220°SW
Pressure: 29.93"   Gusts: NA
Location:  39.4299°N, 96.1804°W
Report Text: KMHK 242052Z 22011KT 10SM CLR 26/17 A2993 RMK AO2 SLP129 T02610172 56024
Loading
Personal Weather Stations






























Interactive Weather Map
Tropical Storm Tracking
New forecast layout! Learn more

10-Day Weather Forecast

Advertisements
Track Severe Weather on mobile